Time;durP1;ratioP1;P1;durP2;ratioP2;P2;SDS_P1;SDS_P2;PMS_P1;PMS_P2;Temp;Humidity;BMP_temperature;BMP_pressure;BME280_temperature;BME280_humidity;BME280_pressure;Samples;Min_cycle;Max_cycle;Signal;HPM_P1;HPM_P2
2022/10/11 00:01:38;;;;;;;23.48;5.63;;;7.10;99.90;;;;;;5035697;28;20045;-78
2022/10/11 00:04:05;;;;;;;33.90;5.55;;;5.50;99.90;;;;;;5036962;28;20468;-76
2022/10/11 00:06:42;;;;;;;24.77;5.43;;;8.00;99.90;;;;;;5019780;28;20049;-79
2022/10/11 00:09:14;;;;;;;29.02;5.57;;;5.30;99.90;;;;;;5044173;28;20057;-76
2022/10/11 00:11:43;;;;;;;26.27;5.68;;;7.60;99.90;;;;;;5022549;28;20076;-79
2022/10/11 00:14:33;;;;;;;29.60;5.70;;;5.40;99.90;;;;;;5055026;28;20060;-78
2022/10/11 00:17:01;;;;;;;22.90;5.28;;;4.50;99.90;;;;;;5056159;28;20037;-78
2022/10/11 00:19:50;;;;;;;24.20;5.05;;;5.40;99.90;;;;;;5058921;28;20064;-76
2022/10/11 00:22:48;;;;;;;28.50;5.18;;;5.00;99.90;;;;;;5054404;28;20059;-78
2022/10/11 00:25:34;;;;;;;30.02;5.50;;;7.10;99.90;;;;;;5056449;28;20064;-78
2022/10/11 00:28:22;;;;;;;25.42;5.43;;;5.20;99.90;;;;;;5054618;28;20064;-75
2022/10/11 00:31:15;;;;;;;26.60;5.10;;;5.20;99.90;;;;;;5056203;28;20052;-76
2022/10/11 00:34:04;;;;;;;28.60;5.55;;;7.40;99.90;;;;;;5059777;28;20052;-77
2022/10/11 00:36:50;;;;;;;30.90;5.82;;;7.00;99.90;;;;;;5056221;28;20495;-75
2022/10/11 00:39:37;;;;;;;31.85;5.30;;;5.30;99.90;;;;;;5056339;28;20375;-76
2022/10/11 00:42:26;;;;;;;28.05;5.20;;;6.80;99.90;;;;;;5054359;28;20383;-79
2022/10/11 00:45:26;;;;;;;26.05;5.70;;;6.40;99.90;;;;;;5058329;28;20056;-77
2022/10/11 00:48:21;;;;;;;24.00;5.18;;;6.80;99.90;;;;;;5054831;28;20517;-77
2022/10/11 00:51:40;;;;;;;25.75;5.68;;;6.10;99.90;;;;;;5055077;28;20403;-76
2022/10/11 00:54:30;;;;;;;27.75;5.43;;;4.90;99.90;;;;;;5038969;28;20059;-80
2022/10/11 00:57:20;;;;;;;37.28;6.22;;;4.90;99.90;;;;;;5055828;28;20059;-76
2022/10/11 01:00:09;;;;;;;32.03;5.38;;;5.70;99.90;;;;;;5055353;28;20059;-79
2022/10/11 01:02:59;;;;;;;28.23;5.70;;;5.00;99.90;;;;;;5058735;28;20525;-79
2022/10/11 01:05:49;;;;;;;27.77;5.70;;;4.90;99.90;;;;;;5055072;28;20056;-77
2022/10/11 01:08:38;;;;;;;28.08;6.05;;;5.00;99.90;;;;;;5043817;28;20072;-77
2022/10/11 01:11:26;;;;;;;30.83;5.50;;;3.70;99.90;;;;;;5021344;28;20061;-77
2022/10/11 01:14:33;;;;;;;32.00;5.38;;;6.20;99.90;;;;;;5023104;28;20384;-79
2022/10/11 01:17:35;;;;;;;28.05;6.03;;;4.80;99.90;;;;;;5035783;28;20368;-77
2022/10/11 01:20:35;;;;;;;26.23;5.82;;;5.80;99.90;;;;;;5035426;28;20072;-78
2022/10/11 01:23:30;;;;;;;25.90;5.32;;;4.80;99.90;;;;;;5034280;28;20506;-79
2022/10/11 01:26:16;;;;;;;31.90;5.18;;;4.70;99.90;;;;;;5035516;28;20060;-78
2022/10/11 01:29:17;;;;;;;23.55;5.32;;;6.70;99.90;;;;;;5021294;28;20048;-76
2022/10/11 01:32:15;;;;;;;24.48;4.60;;;4.70;99.90;;;;;;5035256;28;20052;-77
2022/10/11 01:35:25;;;;;;;24.63;4.90;;;5.50;99.90;;;;;;5019694;28;20400;-78
2022/10/11 01:38:32;;;;;;;22.85;5.10;;;6.80;99.90;;;;;;5035318;28;20278;-77
2022/10/11 01:41:24;;;;;;;27.00;5.17;;;5.70;99.90;;;;;;5016902;28;20662;-77
2022/10/11 01:44:12;;;;;;;31.10;4.90;;;4.60;99.90;;;;;;5035052;28;20109;-79
2022/10/11 01:46:58;;;;;;;23.13;5.40;;;3.60;99.90;;;;;;5035414;28;20380;-78
2022/10/11 01:49:55;;;;;;;32.67;5.28;;;4.80;99.90;;;;;;5033678;28;20052;-79
2022/10/11 01:52:46;;;;;;;24.05;5.15;;;4.50;99.90;;;;;;5034985;28;20064;-78
2022/10/11 01:56:05;;;;;;;27.85;4.88;;;4.50;99.90;;;;;;5034246;28;20075;-76
2022/10/11 01:59:18;;;;;;;24.65;4.50;;;6.70;99.90;;;;;;5006220;28;20060;-77
2022/10/11 02:02:10;;;;;;;21.27;5.20;;;4.40;99.90;;;;;;5017514;28;20060;-76
2022/10/11 02:05:19;;;;;;;23.30;4.43;;;4.90;99.90;;;;;;5034802;28;20503;-77
2022/10/11 02:08:16;;;;;;;;;;;4.30;99.90;;;;;;5033999;28;20057;-78
2022/10/11 02:11:12;;;;;;;31.73;5.25;;;4.60;99.90;;;;;;5034775;28;19940;-78
2022/10/11 02:14:14;;;;;;;28.42;4.82;;;4.40;99.90;;;;;;5035031;28;20053;-78
2022/10/11 02:17:06;;;;;;;28.48;4.68;;;5.40;99.90;;;;;;5034951;28;20049;-78
2022/10/11 02:19:55;;;;;;;28.13;4.68;;;5.70;99.90;;;;;;5025300;28;20060;-75
2022/10/11 02:22:45;;;;;;;31.25;5.03;;;5.20;99.90;;;;;;5019169;28;20396;-75
2022/10/11 02:25:34;;;;;;;27.05;5.05;;;6.10;99.90;;;;;;5020223;28;20064;-76
2022/10/11 02:28:30;;;;;;;26.58;4.93;;;6.40;99.90;;;;;;5019690;28;20056;-76
2022/10/11 02:31:20;;;;;;;31.25;4.93;;;4.40;99.90;;;;;;5022166;28;20056;-76
2022/10/11 02:34:33;;;;;;;26.67;4.72;;;4.20;99.90;;;;;;5034789;28;20379;-77
2022/10/11 02:37:31;;;;;;;28.27;4.72;;;4.30;99.90;;;;;;5023367;28;20486;-78
2022/10/11 02:40:28;;;;;;;32.33;4.78;;;4.20;99.90;;;;;;5019984;28;20060;-79
2022/10/11 02:43:35;;;;;;;27.73;4.65;;;4.10;99.90;;;;;;5033489;28;20064;-76
2022/10/11 02:46:22;;;;;;;27.85;4.72;;;4.10;99.90;;;;;;5034764;28;20505;-79
2022/10/11 02:49:12;;;;;;;21.42;4.95;;;5.20;99.90;;;;;;5023367;28;20376;-77
2022/10/11 02:51:58;;;;;;;30.77;5.07;;;5.40;99.90;;;;;;5020211;28;20487;-78
2022/10/11 02:54:46;;;;;;;;;;;5.90;99.90;;;;;;5019841;28;20065;-79
2022/10/11 02:57:32;;;;;;;32.30;4.53;;;4.10;99.90;;;;;;5034618;28;19928;-79
2022/10/11 03:00:21;;;;;;;31.73;5.00;;;6.20;99.90;;;;;;5034632;28;20056;-77
2022/10/11 03:03:07;;;;;;;30.15;5.35;;;4.80;99.90;;;;;;5033460;28;20064;-79
2022/10/11 03:06:00;;;;;;;29.92;5.22;;;6.10;99.90;;;;;;5024698;28;20483;-78
2022/10/11 03:08:47;;;;;;;32.47;4.65;;;2.80;99.90;;;;;;5035368;28;20055;-78
2022/10/11 03:11:36;;;;;;;26.58;4.88;;;5.80;99.90;;;;;;5054092;28;20066;-76
2022/10/11 03:14:23;;;;;;;24.55;4.90;;;3.70;99.90;;;;;;5055093;28;20056;-77
2022/10/11 03:17:12;;;;;;;24.50;4.70;;;5.30;99.90;;;;;;5057158;28;20060;-77
2022/10/11 03:20:20;;;;;;;29.70;4.93;;;4.10;99.90;;;;;;5057654;28;20060;-77
2022/10/11 03:23:07;;;;;;;24.27;4.63;;;4.90;99.90;;;;;;5056542;28;20056;-78
2022/10/11 03:25:53;;;;;;;29.08;4.95;;;3.00;99.90;;;;;;5056936;28;20059;-77
2022/10/11 03:28:39;;;;;;;31.63;5.30;;;5.50;99.90;;;;;;5060676;28;20048;-77
2022/10/11 03:31:26;;;;;;;30.05;5.10;;;5.10;99.90;;;;;;5060488;28;20375;-78
2022/10/11 03:34:13;;;;;;;26.50;4.80;;;4.80;99.90;;;;;;5057712;28;20060;-77
2022/10/11 03:36:59;;;;;;;31.10;5.28;;;5.70;99.90;;;;;;5057359;28;20064;-80
2022/10/11 03:39:46;;;;;;;33.35;4.85;;;5.60;99.90;;;;;;5056845;28;20500;-78
2022/10/11 03:42:32;;;;;;;29.55;4.97;;;3.90;99.90;;;;;;5056181;28;20064;-76
2022/10/11 03:45:18;;;;;;;30.25;4.90;;;5.30;99.90;;;;;;5056571;28;20064;-79
2022/10/11 03:48:05;;;;;;;36.47;5.47;;;5.30;99.90;;;;;;5058631;28;20064;-79
2022/10/11 03:50:51;;;;;;;24.90;4.43;;;3.80;99.90;;;;;;5057120;28;20059;-79
2022/10/11 03:53:39;;;;;;;36.75;5.07;;;5.10;99.90;;;;;;5061234;28;20052;-76
2022/10/11 03:56:26;;;;;;;34.70;5.13;;;3.80;99.90;;;;;;5055269;28;20495;-77
2022/10/11 03:59:12;;;;;;;33.35;4.95;;;4.90;99.90;;;;;;5056235;28;20574;-77
2022/10/11 04:01:59;;;;;;;38.83;5.32;;;4.50;99.90;;;;;;5055060;28;20072;-78
2022/10/11 04:04:47;;;;;;;34.35;4.95;;;5.40;99.90;;;;;;5056976;28;20059;-79
2022/10/11 04:07:34;;;;;;;33.47;4.93;;;5.60;99.90;;;;;;5055667;28;20068;-76
2022/10/11 04:10:24;;;;;;;32.22;5.03;;;5.80;99.90;;;;;;5036692;28;20061;-77
2022/10/11 04:13:11;;;;;;;32.95;5.07;;;2.80;99.90;;;;;;5036947;28;20072;-77
2022/10/11 04:15:57;;;;;;;26.85;4.97;;;5.10;99.90;;;;;;5021180;28;20060;-78
2022/10/11 04:18:43;;;;;;;25.50;4.65;;;5.10;99.90;;;;;;5036648;28;20517;-79
2022/10/11 04:21:32;;;;;;;37.00;5.10;;;5.00;99.90;;;;;;5023978;28;20060;-77
2022/10/11 04:24:18;;;;;;;35.78;5.15;;;5.50;99.90;;;;;;5036587;28;20060;-79
2022/10/11 04:27:05;;;;;;;32.97;5.15;;;4.80;99.90;;;;;;5036691;28;20071;-77
2022/10/11 04:29:53;;;;;;;38.33;5.07;;;4.60;99.90;;;;;;5035388;28;20360;-79
2022/10/11 04:32:39;;;;;;;28.63;4.90;;;5.50;99.90;;;;;;5036391;28;20053;-77
2022/10/11 04:35:25;;;;;;;29.50;4.75;;;4.90;99.90;;;;;;5025432;28;20053;-76
2022/10/11 04:38:12;;;;;;;33.53;4.85;;;3.70;99.90;;;;;;5036420;28;20487;-80
2022/10/11 04:41:06;;;;;;;31.95;4.75;;;4.60;99.90;;;;;;5036017;28;20068;-76
2022/10/11 04:43:53;;;;;;;31.58;4.85;;;3.70;99.90;;;;;;5021819;28;20060;-79
2022/10/11 04:46:41;;;;;;;42.22;5.20;;;3.70;99.90;;;;;;5021979;28;20072;-78
2022/10/11 04:49:27;;;;;;;23.95;4.90;;;3.70;99.90;;;;;;5020949;28;20060;-76
2022/10/11 04:52:20;;;;;;;32.30;5.35;;;5.20;99.90;;;;;;5026043;28;20491;-77
2022/10/11 04:55:11;;;;;;;25.48;5.07;;;6.00;99.90;;;;;;5035063;28;20495;-80
2022/10/11 04:57:57;;;;;;;31.95;4.75;;;4.40;99.90;;;;;;5035819;28;20064;-78
2022/10/11 05:00:45;;;;;;;34.28;5.47;;;5.40;99.90;;;;;;5035963;28;20064;-77
2022/10/11 05:03:34;;;;;;;36.40;5.60;;;5.60;99.90;;;;;;5035990;28;20057;-77
2022/10/11 05:06:36;;;;;;;;;;;;;;;;;;;;;
2022/10/11 05:10:06;;;;;;;38.63;5.45;;;4.90;99.90;;;;;;5041198;28;20376;-76
2022/10/11 05:13:33;;;;;;;45.60;5.95;;;3.70;99.90;;;;;;5054973;28;20072;-80
2022/10/11 05:17:33;;;;;;;24.08;5.03;;;3.60;99.90;;;;;;5013994;28;20057;-79
2022/10/11 05:21:08;;;;;;;;;;;;;;;;;;;;;
2022/10/11 05:24:12;;;;;;;30.83;5.38;;;3.00;99.90;;;;;;4942784;29;19933;-78
2022/10/11 05:28:10;;;;;;;;;;;;;;;;;;;;;
2022/10/11 05:31:00;;;;;;;38.17;4.68;;;2.20;99.90;;;;;;4898014;29;20072;-78
2022/10/11 05:42:39;;;;;;;37.97;5.15;;;3.40;99.90;;;;;;4898077;29;20159;-79
2022/10/11 05:46:27;;;;;;;39.25;5.50;;;4.70;99.90;;;;;;4898719;29;20530;-79
2022/10/11 05:49:53;;;;;;;33.25;5.70;;;5.60;99.90;;;;;;4897805;29;20056;-80
2022/10/11 05:57:27;;;;;;;26.90;4.32;;;3.20;99.90;;;;;;4879286;29;20476;-80
2022/10/11 06:00:41;;;;;;;30.35;4.88;;;4.80;99.90;;;;;;4936010;29;20066;-77
2022/10/11 06:03:46;;;;;;;34.83;5.55;;;4.80;99.90;;;;;;4937213;29;20078;-79
2022/10/11 06:07:15;;;;;;;34.38;5.88;;;2.20;99.90;;;;;;4918626;29;20054;-76
2022/10/11 06:10:04;;;;;;;;;;;5.10;99.90;;;;;;4924632;29;20411;-78
2022/10/11 06:13:22;;;;;;;31.63;5.63;;;3.60;99.90;;;;;;4954023;28;20024;-77
2022/10/11 06:16:45;;;;;;;33.95;5.63;;;2.60;99.90;;;;;;5012274;28;20057;-76
2022/10/11 06:19:53;;;;;;;;;;;;;;;;;;;;;
2022/10/11 06:23:00;;;;;;;32.47;5.57;;;2.10;99.90;;;;;;5012336;28;20370;-77
2022/10/11 06:26:07;;;;;;;44.40;5.60;;;4.40;99.90;;;;;;5060011;28;20546;-77
2022/10/11 06:29:19;;;;;;;26.80;5.75;;;3.50;99.90;;;;;;5054804;28;20064;-79
2022/10/11 06:32:46;;;;;;;34.72;6.13;;;3.60;99.90;;;;;;4993484;28;20058;-77
2022/10/11 06:36:24;;;;;;;41.42;6.00;;;5.50;99.90;;;;;;4930078;29;20145;-80
2022/10/11 06:39:57;;;;;;;38.58;6.32;;;5.80;99.90;;;;;;4926053;29;20071;-79
2022/10/11 06:42:59;;;;;;;31.48;5.88;;;4.30;99.90;;;;;;4934633;29;20067;-78
2022/10/11 06:45:59;;;;;;;33.20;5.43;;;5.60;99.90;;;;;;4934529;29;20070;-76
2022/10/11 06:48:48;;;;;;;30.60;5.63;;;5.40;99.90;;;;;;4935484;29;20059;-75
2022/10/11 06:51:36;;;;;;;31.15;5.88;;;1.90;99.90;;;;;;4938733;29;20062;-75
2022/10/11 06:54:34;;;;;;;44.35;9.07;;;2.70;99.90;;;;;;4990239;28;20539;-79
2022/10/11 06:57:50;;;;;;;43.17;12.27;;;3.70;99.90;;;;;;4986207;28;20520;-80
2022/10/11 07:05:15;;;;;;;37.38;6.20;;;3.90;99.90;;;;;;5035110;28;20064;-79
2022/10/11 07:09:40;;;;;;;;;;;;;;;;;;;;;
2022/10/11 07:13:57;;;;;;;;;;;;;;;;;;;;;
2022/10/11 07:27:02;;;;;;;28.98;5.68;;;4.10;99.90;;;;;;4841355;29;20171;-79
2022/10/11 07:45:00;;;;;;;;;;;;;;;;;;;;;
2022/10/11 07:48:52;;;;;;;41.17;7.65;;;5.20;99.90;;;;;;4834340;29;20056;-81
2022/10/11 07:53:43;;;;;;;;;;;;;;;;;;;;;
2022/10/11 07:56:48;;;;;;;49.17;6.60;;;3.70;99.90;;;;;;4828559;29;20065;-82
2022/10/11 08:00:47;;;;;;;53.22;7.93;;;4.50;99.90;;;;;;4918700;29;20055;-81
2022/10/11 08:20:31;;;;;;;;;;;;;;;;;;;;;
2022/10/11 08:27:30;;;;;;;46.83;7.07;;;7.30;99.90;;;;;;4942498;29;20058;-80
2022/10/11 08:30:17;;;;;;;48.60;7.85;;;8.10;99.90;;;;;;4943673;29;20058;-79
2022/10/11 08:44:10;;;;;;;;;;;;;;;;;;;;;
2022/10/11 08:52:57;;;;;;;55.17;7.95;;;6.50;99.90;;;;;;4784813;30;20063;-80
2022/10/11 09:00:48;;;;;;;58.15;7.65;;;6.70;99.90;;;;;;4790768;29;20058;-81
2022/10/11 09:04:21;;;;;;;39.30;6.50;;;8.70;99.90;;;;;;4796876;29;20176;-79
2022/10/11 09:07:53;;;;;;;44.47;5.93;;;6.90;99.90;;;;;;4789908;30;20173;-81
2022/10/11 09:20:22;;;;;;;45.30;6.50;;;7.40;99.90;;;;;;4917107;29;20150;-82
2022/10/11 09:28:37;;;;;;;43.67;5.70;;;7.70;99.90;;;;;;4911977;29;20602;-80
2022/10/11 09:31:23;;;;;;;40.10;5.45;;;7.80;99.90;;;;;;4923549;29;20231;-77
2022/10/11 09:34:13;;;;;;;37.80;5.65;;;9.30;99.90;;;;;;5015196;28;20060;-80
2022/10/11 09:37:31;;;;;;;37.10;5.20;;;8.00;99.90;;;;;;5006924;28;20064;-80
2022/10/11 09:41:00;;;;;;;38.40;5.40;;;8.10;99.90;;;;;;5009212;28;20495;-80
2022/10/11 09:44:11;;;;;;;29.88;5.15;;;7.60;99.90;;;;;;5034695;28;20064;-82
2022/10/11 09:47:26;;;;;;;32.53;5.15;;;10.20;99.90;;;;;;5029308;28;20052;-77
2022/10/11 09:50:43;;;;;;;32.15;5.15;;;8.30;99.90;;;;;;5022925;28;20048;-78
2022/10/11 09:53:59;;;;;;;39.08;5.32;;;7.30;99.90;;;;;;5034739;28;20491;-79
2022/10/11 09:57:35;;;;;;;31.63;5.15;;;7.70;99.90;;;;;;5023547;28;20056;-79
2022/10/11 10:00:52;;;;;;;29.42;4.68;;;10.50;99.90;;;;;;5034461;28;20064;-77
2022/10/11 10:09:33;;;;;;;37.00;4.72;;;9.30;99.90;;;;;;4997411;28;20060;-78
2022/10/11 10:22:42;;;;;;;28.55;4.68;;;8.00;99.90;;;;;;4883476;29;20052;-79
2022/10/11 10:25:46;;;;;;;30.05;4.60;;;8.60;99.90;;;;;;4902358;29;20067;-79
2022/10/11 10:30:26;;;;;;;34.90;4.50;;;9.30;99.90;;;;;;4897630;29;20166;-79
2022/10/11 10:34:41;;;;;;;36.58;4.63;;;9.50;99.90;;;;;;4901399;29;20556;-79
2022/10/11 10:52:04;;;;;;;31.38;4.28;;;10.20;99.90;;;;;;4875363;29;20059;-79
2022/10/11 10:55:40;;;;;;;25.65;3.58;;;9.20;99.90;;;;;;4956987;29;20429;-79
2022/10/11 10:59:37;;;;;;;;;;;;;;;;;;;;;
2022/10/11 11:03:25;;;;;;;21.45;3.30;;;10.30;99.90;;;;;;5027887;28;20065;-79
2022/10/11 11:07:11;;;;;;;26.08;3.63;;;8.90;99.90;;;;;;5015207;28;20061;-79
2022/10/11 11:10:48;;;;;;;31.05;4.82;;;11.70;99.90;;;;;;5037977;28;20060;-81
2022/10/11 11:14:11;;;;;;;21.83;4.13;;;10.70;99.90;;;;;;5038116;28;20064;-71
2022/10/11 11:17:58;;;;;;;28.20;3.85;;;10.80;99.90;;;;;;5027782;28;20064;-78
2022/10/11 11:21:31;;;;;;;29.63;4.43;;;10.80;99.90;;;;;;5023458;28;20048;-82
2022/10/11 11:25:22;;;;;;;30.33;3.90;;;10.80;99.90;;;;;;4972620;28;20052;-80
2022/10/11 11:28:25;;;;;;;28.58;4.10;;;11.10;99.90;;;;;;5021956;28;20060;-81
2022/10/11 11:31:58;;;;;;;19.38;3.45;;;11.20;99.90;;;;;;5036967;28;20049;-79
2022/10/11 11:35:39;;;;;;;25.52;3.47;;;11.20;99.90;;;;;;5035557;28;20052;-78
2022/10/11 11:38:42;;;;;;;20.10;3.45;;;10.60;99.90;;;;;;5019208;28;20088;-75
2022/10/11 11:41:53;;;;;;;22.25;3.60;;;11.40;99.90;;;;;;5036170;28;20384;-79
2022/10/11 11:44:50;;;;;;;21.15;3.47;;;11.50;99.90;;;;;;5036404;28;20060;-77
2022/10/11 11:47:42;;;;;;;21.60;3.67;;;11.60;99.90;;;;;;5010882;28;20479;-77
2022/10/11 11:50:40;;;;;;;21.98;3.25;;;11.70;99.90;;;;;;5022700;28;20072;-78
2022/10/11 11:53:43;;;;;;;21.65;3.75;;;11.70;99.90;;;;;;5025374;28;20060;-78
2022/10/11 11:57:01;;;;;;;19.80;3.15;;;12.00;99.90;;;;;;5021359;28;20044;-80
2022/10/11 12:00:12;;;;;;;20.52;3.28;;;12.10;99.90;;;;;;5036590;28;20060;-79
2022/10/11 12:03:08;;;;;;;22.98;3.55;;;12.40;99.90;;;;;;5035627;28;20064;-79
2022/10/11 12:06:03;;;;;;;21.95;3.78;;;12.20;99.90;;;;;;5036491;28;20502;-79
2022/10/11 12:09:17;;;;;;;23.33;3.60;;;12.20;99.90;;;;;;5030072;28;20072;-80
2022/10/11 12:12:34;;;;;;;19.95;3.50;;;12.30;99.90;;;;;;5058657;28;20060;-78
2022/10/11 12:15:31;;;;;;;16.92;3.28;;;12.20;99.90;;;;;;5054642;28;20060;-80
2022/10/11 12:18:49;;;;;;;21.77;3.70;;;12.40;99.90;;;;;;5056354;28;20052;-80
2022/10/11 12:21:42;;;;;;;25.60;3.75;;;12.50;99.90;;;;;;5054414;28;20083;-78
2022/10/11 12:24:57;;;;;;;21.15;3.25;;;12.70;99.90;;;;;;5055428;28;20067;-80
2022/10/11 12:27:53;;;;;;;;;;;12.70;99.90;;;;;;5054976;28;20071;-79
2022/10/11 12:30:52;;;;;;;18.75;3.10;;;14.70;99.90;;;;;;5055427;28;19921;-79
2022/10/11 12:33:42;;;;;;;21.48;3.25;;;12.80;99.90;;;;;;5056666;28;20387;-79
2022/10/11 12:36:47;;;;;;;24.75;3.10;;;12.90;99.90;;;;;;5059520;28;20479;-79
2022/10/11 12:40:40;;;;;;;19.35;2.88;;;13.00;99.90;;;;;;5045955;28;20060;-83
2022/10/11 12:43:59;;;;;;;17.00;3.00;;;13.00;99.90;;;;;;5045745;28;20392;-77
2022/10/11 12:47:17;;;;;;;18.15;2.58;;;13.10;99.90;;;;;;4975031;28;20054;-80
2022/10/11 12:51:07;;;;;;;15.93;3.00;;;13.30;99.90;;;;;;5057571;28;20064;-80
2022/10/11 12:55:19;;;;;;;21.95;3.30;;;13.40;99.90;;;;;;4968611;28;20409;-79
2022/10/11 13:07:22;;;;;;;16.63;3.15;;;14.10;99.90;;;;;;4963118;28;20173;-82
2022/10/11 13:17:50;;;;;;;25.92;3.35;;;13.50;99.90;;;;;;4956305;28;20066;-79
2022/10/11 13:21:58;;;;;;;18.05;3.05;;;14.30;99.90;;;;;;4925078;29;20399;-78
2022/10/11 13:25:29;;;;;;;20.15;2.65;;;12.10;99.90;;;;;;4919672;29;20076;-80
2022/10/11 13:28:49;;;;;;;20.63;3.33;;;14.00;99.90;;;;;;4929946;29;20114;-83
2022/10/11 13:31:49;;;;;;;17.95;3.20;;;14.30;99.90;;;;;;4917789;29;20387;-79
2022/10/11 13:34:40;;;;;;;23.73;3.50;;;14.10;99.90;;;;;;4916510;29;20177;-79
2022/10/11 13:37:37;;;;;;;23.30;3.25;;;14.20;99.90;;;;;;4919374;29;20067;-80
2022/10/11 13:40:45;;;;;;;19.20;3.65;;;14.40;99.90;;;;;;4931134;29;20514;-79
2022/10/11 13:43:52;;;;;;;20.98;3.40;;;14.40;99.90;;;;;;4961125;28;20173;-80
2022/10/11 13:46:48;;;;;;;16.52;3.40;;;14.40;99.90;;;;;;4994146;28;20616;-80
2022/10/11 13:50:21;;;;;;;20.40;3.72;;;14.40;99.90;;;;;;4979507;28;20505;-79
2022/10/11 13:58:37;;;;;;;;;;;;;;;;;;;;;
2022/10/11 14:02:50;;;;;;;23.00;4.03;;;13.50;99.90;;;;;;4897067;29;20072;-81
2022/10/11 14:15:24;;;;;;;;;;;;;;;;;;;;;
2022/10/11 14:24:16;;;;;;;;;;;;;;;;;;;;;
2022/10/11 14:27:42;;;;;;;;;;;;;;;;;;;;;
2022/10/11 14:32:10;;;;;;;;;;;;;;;;;;;;;
2022/10/11 14:35:54;;;;;;;18.63;3.97;;;14.70;99.90;;;;;;4896535;29;20146;-78
2022/10/11 14:39:30;;;;;;;20.92;3.75;;;16.40;99.90;;;;;;4885562;29;20059;-80
2022/10/11 14:42:32;;;;;;;18.70;4.00;;;16.50;99.90;;;;;;4896876;29;20060;-78
2022/10/11 14:45:20;;;;;;;19.38;3.40;;;16.50;99.90;;;;;;4885224;29;20072;-76
2022/10/11 14:48:17;;;;;;;15.98;3.00;;;16.40;99.90;;;;;;4897076;29;20069;-80
2022/10/11 14:51:33;;;;;;;15.82;3.60;;;16.20;99.90;;;;;;4897722;29;20063;-80
2022/10/11 14:55:00;;;;;;;19.52;3.13;;;16.00;99.90;;;;;;4925510;28;20077;-79
2022/10/11 14:58:05;;;;;;;20.73;3.38;;;15.80;99.90;;;;;;4993438;28;20058;-79
2022/10/11 15:01:12;;;;;;;38.10;4.25;;;15.70;99.90;;;;;;4999814;28;20069;-77
2022/10/11 15:04:07;;;;;;;15.43;3.05;;;15.60;99.90;;;;;;5034323;28;20061;-77
2022/10/11 15:07:01;;;;;;;17.33;3.05;;;15.40;99.90;;;;;;5034670;28;20060;-75
2022/10/11 15:09:53;;;;;;;18.55;3.20;;;15.20;99.90;;;;;;5030431;28;20440;-76
2022/10/11 15:12:43;;;;;;;21.42;3.38;;;15.00;99.90;;;;;;5050707;28;20052;-74
2022/10/11 15:15:34;;;;;;;15.18;2.70;;;14.90;99.90;;;;;;5055237;28;20064;-80
2022/10/11 15:18:33;;;;;;;;;;;;;;;;;;;;;
2022/10/11 15:21:26;;;;;;;14.77;2.78;;;14.60;99.90;;;;;;5056765;28;20044;-77
2022/10/11 15:24:14;;;;;;;20.10;3.00;;;14.40;99.90;;;;;;5057114;28;20048;-76
2022/10/11 15:27:00;;;;;;;14.68;2.75;;;14.20;99.90;;;;;;5037912;28;20381;-75
2022/10/11 15:43:01;;;;;;;16.33;3.28;;;13.50;99.90;;;;;;4919509;29;20454;-79
2022/10/11 15:46:57;;;;;;;16.38;2.80;;;12.10;99.90;;;;;;4914042;29;20059;-78
2022/10/11 15:49:47;;;;;;;13.50;2.47;;;12.80;99.90;;;;;;4919478;29;20059;-76
2022/10/11 15:52:33;;;;;;;11.77;2.75;;;13.10;99.90;;;;;;4919465;29;20059;-75
2022/10/11 15:55:22;;;;;;;13.57;2.63;;;13.00;99.90;;;;;;4905136;29;20075;-76
2022/10/11 15:58:15;;;;;;;17.63;3.38;;;13.00;99.90;;;;;;4919127;29;20071;-78
2022/10/11 16:01:06;;;;;;;19.15;3.33;;;12.90;99.90;;;;;;4924749;29;20062;-76
2022/10/11 16:04:06;;;;;;;14.52;2.95;;;12.80;99.90;;;;;;4983633;28;20508;-79
2022/10/11 16:06:53;;;;;;;15.20;3.20;;;12.90;99.90;;;;;;4994137;28;20069;-74
2022/10/11 16:09:39;;;;;;;18.55;3.17;;;12.90;99.90;;;;;;4998057;28;20154;-75
2022/10/11 16:12:25;;;;;;;15.75;2.92;;;12.90;99.90;;;;;;5009872;28;20487;-79
2022/10/11 16:15:12;;;;;;;14.27;2.85;;;12.90;99.90;;;;;;5055745;28;20060;-75
2022/10/11 16:17:59;;;;;;;17.20;2.63;;;12.90;99.90;;;;;;5051175;28;20299;-75
2022/10/11 16:20:49;;;;;;;12.75;2.83;;;13.50;99.90;;;;;;5041890;28;20487;-76
2022/10/11 16:23:40;;;;;;;12.82;2.60;;;12.70;99.90;;;;;;5041335;28;20064;-77
2022/10/11 16:27:00;;;;;;;13.88;2.40;;;12.60;99.90;;;;;;5034674;28;20076;-77
2022/10/11 16:30:41;;;;;;;;;;;;;;;;;;;;;
2022/10/11 16:34:22;;;;;;;13.90;2.65;;;12.30;99.90;;;;;;5025494;28;20055;-78
2022/10/11 16:37:56;;;;;;;16.75;3.05;;;12.10;99.90;;;;;;5037628;28;20064;-80
2022/10/11 16:41:15;;;;;;;17.00;2.90;;;11.90;99.90;;;;;;5038153;28;20056;-77
2022/10/11 16:44:11;;;;;;;11.57;2.60;;;12.00;99.90;;;;;;5035607;28;20064;-77
2022/10/11 16:47:01;;;;;;;15.52;2.85;;;11.90;99.90;;;;;;5036105;28;20060;-73
2022/10/11 16:49:54;;;;;;;13.27;2.78;;;11.10;99.90;;;;;;5034857;28;20483;-78
2022/10/11 16:52:57;;;;;;;16.60;2.90;;;11.20;99.90;;;;;;5033062;28;20060;-77
2022/10/11 16:56:35;;;;;;;14.73;3.20;;;9.70;99.90;;;;;;5006597;28;20076;-76
2022/10/11 17:00:51;;;;;;;16.25;3.50;;;11.40;99.90;;;;;;5034945;28;20519;-77
2022/10/11 17:03:41;;;;;;;20.67;4.13;;;11.50;99.90;;;;;;5038910;28;20072;-78
2022/10/11 17:07:14;;;;;;;;;;;;;;;;;;;;;
2022/10/11 17:11:28;;;;;;;;;;;;;;;;;;;;;
2022/10/11 17:16:11;;;;;;;15.38;2.90;;;11.00;99.90;;;;;;5006242;28;20405;-78
2022/10/11 17:23:47;;;;;;;;;;;;;;;;;;;;;
2022/10/11 17:36:49;;;;;;;;;;;;;;;;;;;;;
2022/10/11 17:50:17;;;;;;;19.92;5.47;;;10.60;99.90;;;;;;4803705;29;20058;-78
2022/10/11 17:54:11;;;;;;;21.25;5.97;;;10.40;99.90;;;;;;4868674;29;20071;-77
2022/10/11 17:57:46;;;;;;;;;;;;;;;;;;;;;
2022/10/11 18:06:15;;;;;;;23.35;6.38;;;9.00;99.90;;;;;;4896871;29;20068;-79
2022/10/11 18:09:33;;;;;;;;;;;;;;;;;;;;;
2022/10/11 18:35:13;;;;;;;;;;;;;;;;;;;;;
2022/10/11 18:43:16;;;;;;;23.98;6.93;;;8.50;99.90;;;;;;4875291;29;20406;-82
2022/10/11 18:48:10;;;;;;;;;;;;;;;;;;;;;
2022/10/11 18:59:28;;;;;;;31.08;9.60;;;6.80;99.90;;;;;;4919051;29;20071;-79
2022/10/11 19:03:00;;;;;;;34.40;9.77;;;8.10;99.90;;;;;;4919119;29;20425;-79
2022/10/11 19:05:55;;;;;;;25.85;9.05;;;9.00;99.90;;;;;;4921990;28;20059;-77
2022/10/11 19:09:49;;;;;;;35.20;7.95;;;8.00;99.90;;;;;;4979069;28;20489;-79
2022/10/11 19:12:59;;;;;;;25.15;8.20;;;9.40;99.90;;;;;;4977478;28;20147;-79
2022/10/11 19:15:53;;;;;;;26.73;8.07;;;7.80;99.90;;;;;;4977412;28;20070;-81
2022/10/11 19:19:12;;;;;;;30.90;7.97;;;9.90;99.90;;;;;;4989060;28;20371;-77
2022/10/11 19:22:21;;;;;;;22.63;7.38;;;9.00;99.90;;;;;;4991257;28;20057;-80
2022/10/11 19:26:25;;;;;;;29.77;8.00;;;7.70;99.90;;;;;;5020551;28;20053;-78
2022/10/11 19:30:08;;;;;;;29.45;7.70;;;7.50;99.90;;;;;;5006494;28;20053;-78
2022/10/11 19:33:48;;;;;;;31.05;8.10;;;9.10;99.90;;;;;;5027772;28;20053;-82
2022/10/11 19:37:26;;;;;;;28.48;8.15;;;7.20;99.90;;;;;;4987507;28;20087;-81
2022/10/11 19:40:24;;;;;;;28.15;8.20;;;5.60;99.90;;;;;;4976706;28;20069;-78
2022/10/11 19:43:22;;;;;;;29.88;8.07;;;7.60;99.90;;;;;;4995833;28;20412;-75
2022/10/11 19:46:20;;;;;;;29.65;7.70;;;8.50;99.90;;;;;;4996853;28;20049;-77
2022/10/11 19:49:29;;;;;;;27.65;8.35;;;8.60;99.90;;;;;;4995448;28;20053;-79
2022/10/11 19:52:30;;;;;;;26.38;8.38;;;7.60;99.90;;;;;;4996266;28;20049;-77
2022/10/11 19:56:14;;;;;;;35.70;8.27;;;8.60;99.90;;;;;;4994297;28;20539;-78
2022/10/11 20:00:09;;;;;;;;;;;;;;;;;;;;;
2022/10/11 20:03:41;;;;;;;28.67;7.95;;;7.00;99.90;;;;;;4997328;28;20137;-78
2022/10/11 20:06:43;;;;;;;29.33;8.43;;;9.40;99.90;;;;;;4995922;28;20058;-79
2022/10/11 20:09:37;;;;;;;26.33;8.00;;;5.90;99.90;;;;;;4997625;28;20057;-80
2022/10/11 20:12:24;;;;;;;29.05;7.80;;;7.00;99.90;;;;;;4969072;28;20491;-79
2022/10/11 20:15:32;;;;;;;25.95;7.55;;;6.90;99.90;;;;;;5015356;28;20495;-78
2022/10/11 20:18:57;;;;;;;29.52;8.27;;;6.80;99.90;;;;;;5017362;28;20065;-76
2022/10/11 20:21:48;;;;;;;32.45;8.45;;;8.10;99.90;;;;;;5015973;28;20061;-77
2022/10/11 20:24:42;;;;;;;30.48;7.82;;;6.80;99.90;;;;;;5016233;28;20376;-78
2022/10/11 20:27:33;;;;;;;32.03;9.02;;;7.70;99.90;;;;;;5029696;28;20068;-76
2022/10/11 20:30:24;;;;;;;32.55;8.35;;;7.60;99.90;;;;;;5031311;28;20060;-77
2022/10/11 20:33:11;;;;;;;29.60;8.30;;;8.10;99.90;;;;;;5002334;28;20065;-77
2022/10/11 20:36:19;;;;;;;28.08;8.50;;;6.70;99.90;;;;;;5019782;28;20052;-78
2022/10/11 20:39:11;;;;;;;27.10;8.00;;;7.30;99.90;;;;;;5016811;28;20057;-80
2022/10/11 20:42:00;;;;;;;24.00;7.45;;;6.60;99.90;;;;;;5028547;28;20056;-78
2022/10/11 20:44:58;;;;;;;30.10;8.27;;;5.90;99.90;;;;;;5004481;28;20511;-76
2022/10/11 20:48:28;;;;;;;29.15;8.18;;;8.10;99.90;;;;;;5015234;28;20068;-80
2022/10/11 20:51:40;;;;;;;26.70;7.30;;;4.90;99.90;;;;;;5016764;28;20073;-79
2022/10/11 20:54:34;;;;;;;27.63;7.82;;;6.50;99.90;;;;;;5015179;28;20053;-78
2022/10/11 20:57:44;;;;;;;32.30;7.63;;;6.30;99.90;;;;;;5004433;28;20570;-78